»·PEaware :: N522PM KGJT-KCOS

N522PM :: KGJT-KCOS

FLIGHT INFORMATION

Flight Status: Arrived
Operator: Privately registered:
United States
More flights under this callsign
Pilot: Bruce B. (6887)
Aircraft: Unknown
(E50P)
More flights by this aircraft type
Origin: KGJT Walker
United States
Destination: KCOS City Of Colorado Springs Mun
United States
More flights between these airports :: More routes between these airports
Route: PACES V134 DBL V108 STAMY
File this flight plan on PilotEdge
Remarks:
Altitude:
(Current/Filed)
17,000ft
Speed:
(Current/Filed)
300kts
Departed: 30-Sep-17 10:36 AM
Arrived: 30-Sep-17 11:35 AM
Distance/Time
Traveled:
179nm/0:59
Distance/Time
To Go:
Arrived

Flight Plot

Page will automatically refresh every two minutes.

Flight plan parsing failed; only flown route is shown


Map Options




Map Legend


Flown Route
Filed Route
Departure Airport
Arrival Airport
Navaid (VOR, NDB)
Fix

Horizontal Profiles

Position Reports

Time Latitude Longitude Heading Altitude Ground
Speed
30-Sep-17 10:21 39.121324 -108.523116 304 4863ft 0kts
30-Sep-17 10:22 39.121324 -108.523116 304 4863ft 0kts
30-Sep-17 10:23 39.121324 -108.523116 304 4863ft 0kts
30-Sep-17 10:24 39.121324 -108.523116 304 4863ft 0kts
30-Sep-17 10:25 39.121324 -108.523116 304 4863ft 0kts
30-Sep-17 10:26 39.121324 -108.523116 304 4863ft 0kts
30-Sep-17 10:27 39.121324 -108.523116 304 4863ft 0kts
30-Sep-17 10:28 39.121324 -108.523116 304 4863ft 0kts
30-Sep-17 10:29 39.121569 -108.523107 8 4863ft 4kts
30-Sep-17 10:30 39.124606 -108.527861 304 4863ft 29kts
30-Sep-17 10:31 39.129376 -108.536469 310 4863ft 26kts
30-Sep-17 10:32 39.132907 -108.542971 311 4863ft 17kts
30-Sep-17 10:33 39.134075 -108.544815 24 4863ft 0kts
30-Sep-17 10:34 39.134075 -108.544815 24 4863ft 0kts
30-Sep-17 10:35 39.134075 -108.544815 24 4863ft 0kts
30-Sep-17 10:36 39.134075 -108.544815 24 4863ft 0kts
30-Sep-17 10:37 39.134075 -108.544815 24 4863ft 0kts
30-Sep-17 10:38 39.134076 -108.544815 24 4863ft 0kts
30-Sep-17 10:39 39.134585 -108.543630 125 4863ft 0kts
30-Sep-17 10:40 39.122699 -108.522980 124 5056ft 129kts
30-Sep-17 10:41 39.098833 -108.481529 139 6774ft 154kts
30-Sep-17 10:42 39.068106 -108.512290 255 8207ft 202kts
30-Sep-17 10:43 39.066896 -108.585406 270 10321ft 204kts
30-Sep-17 10:44 39.067925 -108.657272 261 12302ft 199kts
30-Sep-17 10:45 39.062510 -108.729815 264 13961ft 202kts
30-Sep-17 10:46 39.059027 -108.801048 274 15494ft 200kts
30-Sep-17 10:47 39.109417 -108.804375 61 16285ft 260kts
30-Sep-17 10:48 39.111638 -108.709916 99 16420ft 274kts
30-Sep-17 10:49 39.104286 -108.615576 95 16956ft 267kts
30-Sep-17 10:50 39.116383 -108.519136 77 17003ft 281kts
30-Sep-17 10:51 39.136989 -108.419625 76 17005ft 296kts
30-Sep-17 10:52 39.158594 -108.314435 76 17009ft 308kts
30-Sep-17 10:53 39.180648 -108.206512 76 17019ft 315kts
30-Sep-17 10:54 39.203020 -108.096398 76 17023ft 318kts
30-Sep-17 10:55 39.225347 -107.985846 76 17046ft 319kts
30-Sep-17 10:56 39.247696 -107.874783 76 17091ft 321kts
30-Sep-17 10:57 39.270160 -107.762500 76 17085ft 322kts
30-Sep-17 10:58 39.292118 -107.651969 77 17185ft 315kts
30-Sep-17 10:59 39.313511 -107.543290 77 17228ft 311kts
30-Sep-17 11:00 39.334726 -107.435290 76 17280ft 308kts
30-Sep-17 11:01 39.355677 -107.328160 76 17310ft 307kts
30-Sep-17 11:02 39.376618 -107.220564 76 17289ft 309kts
30-Sep-17 11:03 39.397490 -107.112704 76 17242ft 310kts
30-Sep-17 11:04 39.418058 -107.005828 76 17201ft 313kts
30-Sep-17 11:05 39.436889 -106.896140 91 17186ft 308kts
30-Sep-17 11:06 39.417720 -106.790648 108 17186ft 301kts
30-Sep-17 11:07 39.395960 -106.686540 108 17198ft 298kts
30-Sep-17 11:08 39.374267 -106.583301 108 17202ft 298kts
30-Sep-17 11:09 39.352506 -106.480260 108 17231ft 296kts
30-Sep-17 11:10 39.330699 -106.377519 108 17246ft 295kts
30-Sep-17 11:11 39.308911 -106.275359 108 17250ft 295kts
30-Sep-17 11:12 39.287145 -106.173763 108 17268ft 293kts
30-Sep-17 11:13 39.265377 -106.072593 109 17304ft 290kts
30-Sep-17 11:14 39.243727 -105.972460 109 17323ft 289kts
30-Sep-17 11:15 39.222018 -105.872577 109 17354ft 288kts
30-Sep-17 11:16 39.200315 -105.773152 109 17361ft 289kts
30-Sep-17 11:17 39.178350 -105.672944 109 17357ft 292kts
30-Sep-17 11:18 39.156034 -105.571601 109 17370ft 294kts
30-Sep-17 11:19 39.133585 -105.470090 109 17372ft 295kts
30-Sep-17 11:20 39.110928 -105.368274 109 17361ft 296kts
30-Sep-17 11:21 39.088100 -105.265987 109 17323ft 298kts
30-Sep-17 11:22 39.065038 -105.163190 109 17186ft 303kts
30-Sep-17 11:23 39.039418 -105.060188 125 17070ft 294kts
30-Sep-17 11:24 38.989206 -104.980725 135 17029ft 284kts
30-Sep-17 11:25 38.940603 -104.901647 113 16573ft 287kts
30-Sep-17 11:26 38.939865 -104.798229 84 14639ft 290kts
30-Sep-17 11:27 39.000671 -104.749892 1 12466ft 275kts
30-Sep-17 11:28 39.076162 -104.746325 358 10273ft 269kts
30-Sep-17 11:29 39.148817 -104.745151 10 9307ft 253kts
30-Sep-17 11:30 39.153282 -104.683316 156 9049ft 202kts
30-Sep-17 11:31 39.102819 -104.665621 167 8984ft 181kts
30-Sep-17 11:32 39.052314 -104.651006 168 9024ft 189kts
30-Sep-17 11:33 39.001047 -104.652499 205 9122ft 189kts
30-Sep-17 11:34 38.958040 -104.685500 222 9223ft 157kts
30-Sep-17 11:35 38.928674 -104.710654 197 8220ft 122kts
30-Sep-17 11:36 38.897400 -104.716917 179 7380ft 109kts
30-Sep-17 11:37 38.865333 -104.716344 178 6923ft 117kts
30-Sep-17 11:38 38.832344 -104.715941 178 6351ft 115kts
30-Sep-17 11:39 38.811431 -104.715994 197 6131ft 11kts
30-Sep-17 11:40 38.811133 -104.717788 242 6131ft 14kts
30-Sep-17 11:41 38.809225 -104.719042 262 6131ft 0kts
30-Sep-17 11:42 38.809225 -104.719043 262 6131ft 0kts

Navigation Log

Ident Type
Flight plan parsing failed, navigation log unavailable